sensor_id;sensor_type;location;lat;lon;timestamp;P1;durP1;ratioP1;P2;durP2;ratioP2
74245;SDS011;62601;51.044;13.788;2023-12-28T00:00:57;7.07;;;4.70;;
74245;SDS011;62601;51.044;13.788;2023-12-28T00:03:18;8.07;;;4.38;;
74245;SDS011;62601;51.044;13.788;2023-12-28T00:05:39;6.00;;;4.53;;
74245;SDS011;62601;51.044;13.788;2023-12-28T00:08:00;8.93;;;4.43;;
74245;SDS011;62601;51.044;13.788;2023-12-28T00:10:21;7.47;;;5.32;;
74245;SDS011;62601;51.044;13.788;2023-12-28T00:12:42;8.25;;;4.90;;
74245;SDS011;62601;51.044;13.788;2023-12-28T00:15:06;5.63;;;4.78;;
74245;SDS011;62601;51.044;13.788;2023-12-28T00:17:28;4.68;;;3.97;;
74245;SDS011;62601;51.044;13.788;2023-12-28T00:19:49;6.90;;;4.57;;
74245;SDS011;62601;51.044;13.788;2023-12-28T00:22:09;7.05;;;4.65;;
74245;SDS011;62601;51.044;13.788;2023-12-28T00:24:31;6.72;;;4.03;;
74245;SDS011;62601;51.044;13.788;2023-12-28T00:26:51;5.57;;;4.45;;
74245;SDS011;62601;51.044;13.788;2023-12-28T00:29:11;7.10;;;4.57;;
74245;SDS011;62601;51.044;13.788;2023-12-28T00:31:31;6.00;;;4.13;;
74245;SDS011;62601;51.044;13.788;2023-12-28T00:33:51;6.20;;;4.45;;
74245;SDS011;62601;51.044;13.788;2023-12-28T00:36:12;7.07;;;4.15;;
74245;SDS011;62601;51.044;13.788;2023-12-28T00:38:34;6.68;;;4.13;;
74245;SDS011;62601;51.044;13.788;2023-12-28T00:40:58;7.25;;;4.72;;
74245;SDS011;62601;51.044;13.788;2023-12-28T00:43:20;5.28;;;3.80;;
74245;SDS011;62601;51.044;13.788;2023-12-28T00:45:41;9.00;;;5.03;;
74245;SDS011;62601;51.044;13.788;2023-12-28T00:48:03;6.80;;;3.63;;
74245;SDS011;62601;51.044;13.788;2023-12-28T00:50:23;7.00;;;4.22;;
74245;SDS011;62601;51.044;13.788;2023-12-28T00:52:44;10.23;;;4.32;;
74245;SDS011;62601;51.044;13.788;2023-12-28T00:55:07;4.65;;;3.80;;
74245;SDS011;62601;51.044;13.788;2023-12-28T00:57:28;7.45;;;3.95;;
74245;SDS011;62601;51.044;13.788;2023-12-28T00:59:48;5.90;;;4.15;;
74245;SDS011;62601;51.044;13.788;2023-12-28T01:02:10;4.90;;;3.92;;
74245;SDS011;62601;51.044;13.788;2023-12-28T01:04:31;5.20;;;3.80;;
74245;SDS011;62601;51.044;13.788;2023-12-28T01:06:52;6.57;;;3.63;;
74245;SDS011;62601;51.044;13.788;2023-12-28T01:09:13;6.93;;;3.65;;
74245;SDS011;62601;51.044;13.788;2023-12-28T01:11:33;6.60;;;4.32;;
74245;SDS011;62601;51.044;13.788;2023-12-28T01:13:53;7.45;;;4.20;;
74245;SDS011;62601;51.044;13.788;2023-12-28T01:16:13;6.22;;;3.92;;
74245;SDS011;62601;51.044;13.788;2023-12-28T01:18:35;4.82;;;3.80;;
74245;SDS011;62601;51.044;13.788;2023-12-28T01:20:56;7.35;;;4.40;;
74245;SDS011;62601;51.044;13.788;2023-12-28T01:23:16;6.72;;;4.43;;
74245;SDS011;62601;51.044;13.788;2023-12-28T01:25:38;7.55;;;4.30;;
74245;SDS011;62601;51.044;13.788;2023-12-28T01:27:59;8.70;;;4.78;;
74245;SDS011;62601;51.044;13.788;2023-12-28T01:30:20;8.07;;;4.03;;
74245;SDS011;62601;51.044;13.788;2023-12-28T01:32:42;5.85;;;3.85;;
74245;SDS011;62601;51.044;13.788;2023-12-28T01:35:02;5.78;;;4.32;;
74245;SDS011;62601;51.044;13.788;2023-12-28T01:37:23;5.40;;;4.07;;
74245;SDS011;62601;51.044;13.788;2023-12-28T01:39:45;7.80;;;4.43;;
74245;SDS011;62601;51.044;13.788;2023-12-28T01:42:06;7.43;;;4.38;;
74245;SDS011;62601;51.044;13.788;2023-12-28T01:44:26;7.53;;;3.92;;
74245;SDS011;62601;51.044;13.788;2023-12-28T01:46:46;6.13;;;3.80;;
74245;SDS011;62601;51.044;13.788;2023-12-28T01:49:07;4.75;;;3.60;;
74245;SDS011;62601;51.044;13.788;2023-12-28T01:51:28;5.32;;;4.10;;
74245;SDS011;62601;51.044;13.788;2023-12-28T01:53:48;6.93;;;4.15;;
74245;SDS011;62601;51.044;13.788;2023-12-28T01:56:11;5.82;;;4.03;;
74245;SDS011;62601;51.044;13.788;2023-12-28T01:58:32;5.57;;;4.10;;
74245;SDS011;62601;51.044;13.788;2023-12-28T02:00:55;7.25;;;4.00;;
74245;SDS011;62601;51.044;13.788;2023-12-28T02:03:17;8.60;;;4.10;;
74245;SDS011;62601;51.044;13.788;2023-12-28T02:05:37;6.22;;;3.45;;
74245;SDS011;62601;51.044;13.788;2023-12-28T02:07:59;4.85;;;3.70;;
74245;SDS011;62601;51.044;13.788;2023-12-28T02:10:20;6.38;;;4.05;;
74245;SDS011;62601;51.044;13.788;2023-12-28T02:12:42;5.53;;;4.00;;
74245;SDS011;62601;51.044;13.788;2023-12-28T02:15:02;8.73;;;4.28;;
74245;SDS011;62601;51.044;13.788;2023-12-28T02:17:34;6.85;;;3.78;;
74245;SDS011;62601;51.044;13.788;2023-12-28T02:19:56;5.70;;;3.55;;
74245;SDS011;62601;51.044;13.788;2023-12-28T02:22:19;4.95;;;3.90;;
74245;SDS011;62601;51.044;13.788;2023-12-28T02:27:19;5.32;;;3.45;;
74245;SDS011;62601;51.044;13.788;2023-12-28T02:29:40;6.85;;;3.65;;
74245;SDS011;62601;51.044;13.788;2023-12-28T02:32:01;5.90;;;3.80;;
74245;SDS011;62601;51.044;13.788;2023-12-28T02:34:28;6.15;;;3.85;;
74245;SDS011;62601;51.044;13.788;2023-12-28T02:36:50;8.43;;;4.25;;
74245;SDS011;62601;51.044;13.788;2023-12-28T02:39:13;6.43;;;3.60;;
74245;SDS011;62601;51.044;13.788;2023-12-28T02:41:35;4.45;;;3.85;;
74245;SDS011;62601;51.044;13.788;2023-12-28T02:43:57;4.80;;;3.63;;
74245;SDS011;62601;51.044;13.788;2023-12-28T02:46:18;5.18;;;3.70;;
74245;SDS011;62601;51.044;13.788;2023-12-28T02:48:39;6.80;;;4.22;;
74245;SDS011;62601;51.044;13.788;2023-12-28T02:51:01;5.00;;;3.40;;
74245;SDS011;62601;51.044;13.788;2023-12-28T02:53:23;3.90;;;3.28;;
74245;SDS011;62601;51.044;13.788;2023-12-28T02:55:44;4.20;;;3.63;;
74245;SDS011;62601;51.044;13.788;2023-12-28T02:58:05;3.50;;;3.05;;
74245;SDS011;62601;51.044;13.788;2023-12-28T03:00:27;4.35;;;3.40;;
74245;SDS011;62601;51.044;13.788;2023-12-28T03:02:47;4.75;;;3.92;;
74245;SDS011;62601;51.044;13.788;2023-12-28T03:05:09;5.25;;;2.80;;
74245;SDS011;62601;51.044;13.788;2023-12-28T03:07:31;4.47;;;3.30;;
74245;SDS011;62601;51.044;13.788;2023-12-28T03:09:52;4.07;;;3.30;;
74245;SDS011;62601;51.044;13.788;2023-12-28T03:12:13;4.25;;;3.15;;
74245;SDS011;62601;51.044;13.788;2023-12-28T03:14:33;7.15;;;3.05;;
74245;SDS011;62601;51.044;13.788;2023-12-28T03:16:53;4.63;;;2.65;;
74245;SDS011;62601;51.044;13.788;2023-12-28T03:19:13;4.68;;;2.45;;
74245;SDS011;62601;51.044;13.788;2023-12-28T03:21:38;3.50;;;3.00;;
74245;SDS011;62601;51.044;13.788;2023-12-28T03:23:59;4.07;;;2.70;;
74245;SDS011;62601;51.044;13.788;2023-12-28T03:26:21;3.53;;;2.42;;
74245;SDS011;62601;51.044;13.788;2023-12-28T03:28:42;5.22;;;2.90;;
74245;SDS011;62601;51.044;13.788;2023-12-28T03:31:04;4.22;;;2.58;;
74245;SDS011;62601;51.044;13.788;2023-12-28T03:33:25;4.43;;;2.70;;
74245;SDS011;62601;51.044;13.788;2023-12-28T03:35:46;3.85;;;2.25;;
74245;SDS011;62601;51.044;13.788;2023-12-28T03:38:08;4.53;;;2.85;;
74245;SDS011;62601;51.044;13.788;2023-12-28T03:40:28;5.28;;;2.55;;
74245;SDS011;62601;51.044;13.788;2023-12-28T03:42:48;2.88;;;2.40;;
74245;SDS011;62601;51.044;13.788;2023-12-28T03:45:08;5.72;;;2.75;;
74245;SDS011;62601;51.044;13.788;2023-12-28T03:47:29;3.85;;;2.90;;
74245;SDS011;62601;51.044;13.788;2023-12-28T03:49:51;3.45;;;2.60;;
74245;SDS011;62601;51.044;13.788;2023-12-28T03:52:12;4.35;;;2.40;;
74245;SDS011;62601;51.044;13.788;2023-12-28T03:54:34;3.58;;;2.33;;
74245;SDS011;62601;51.044;13.788;2023-12-28T03:56:55;3.45;;;3.15;;
74245;SDS011;62601;51.044;13.788;2023-12-28T03:59:16;4.85;;;2.42;;
74245;SDS011;62601;51.044;13.788;2023-12-28T04:01:38;4.85;;;2.30;;
74245;SDS011;62601;51.044;13.788;2023-12-28T04:03:58;4.90;;;3.05;;
74245;SDS011;62601;51.044;13.788;2023-12-28T04:06:18;4.68;;;3.38;;
74245;SDS011;62601;51.044;13.788;2023-12-28T04:08:39;2.85;;;2.60;;
74245;SDS011;62601;51.044;13.788;2023-12-28T04:11:01;4.47;;;3.38;;
74245;SDS011;62601;51.044;13.788;2023-12-28T04:13:22;3.97;;;2.95;;
74245;SDS011;62601;51.044;13.788;2023-12-28T04:15:44;5.03;;;3.40;;
74245;SDS011;62601;51.044;13.788;2023-12-28T04:18:04;6.60;;;3.70;;
74245;SDS011;62601;51.044;13.788;2023-12-28T04:20:27;4.65;;;3.53;;
74245;SDS011;62601;51.044;13.788;2023-12-28T04:22:47;5.30;;;3.30;;
74245;SDS011;62601;51.044;13.788;2023-12-28T04:25:07;7.55;;;3.35;;
74245;SDS011;62601;51.044;13.788;2023-12-28T04:27:29;4.43;;;3.00;;
74245;SDS011;62601;51.044;13.788;2023-12-28T04:29:49;5.22;;;3.58;;
74245;SDS011;62601;51.044;13.788;2023-12-28T04:32:09;6.68;;;3.78;;
74245;SDS011;62601;51.044;13.788;2023-12-28T04:34:29;4.20;;;2.80;;
74245;SDS011;62601;51.044;13.788;2023-12-28T04:36:50;9.48;;;3.10;;
74245;SDS011;62601;51.044;13.788;2023-12-28T04:39:12;4.85;;;3.20;;
74245;SDS011;62601;51.044;13.788;2023-12-28T04:41:36;4.97;;;2.90;;
74245;SDS011;62601;51.044;13.788;2023-12-28T04:43:56;3.40;;;2.65;;
74245;SDS011;62601;51.044;13.788;2023-12-28T04:46:19;7.57;;;2.92;;
74245;SDS011;62601;51.044;13.788;2023-12-28T04:48:40;3.10;;;2.60;;
74245;SDS011;62601;51.044;13.788;2023-12-28T04:51:04;2.83;;;2.40;;
74245;SDS011;62601;51.044;13.788;2023-12-28T04:53:26;3.22;;;2.63;;
74245;SDS011;62601;51.044;13.788;2023-12-28T04:55:47;3.88;;;2.85;;
74245;SDS011;62601;51.044;13.788;2023-12-28T04:58:10;3.63;;;2.92;;
74245;SDS011;62601;51.044;13.788;2023-12-28T05:00:31;3.40;;;2.30;;
74245;SDS011;62601;51.044;13.788;2023-12-28T05:02:53;2.88;;;2.15;;
74245;SDS011;62601;51.044;13.788;2023-12-28T05:05:14;2.95;;;2.35;;
74245;SDS011;62601;51.044;13.788;2023-12-28T05:07:35;2.92;;;2.53;;
74245;SDS011;62601;51.044;13.788;2023-12-28T05:09:56;3.92;;;2.10;;
74245;SDS011;62601;51.044;13.788;2023-12-28T05:12:17;2.00;;;1.90;;
74245;SDS011;62601;51.044;13.788;2023-12-28T05:14:38;2.08;;;1.70;;
74245;SDS011;62601;51.044;13.788;2023-12-28T05:16:59;3.03;;;2.60;;
74245;SDS011;62601;51.044;13.788;2023-12-28T05:19:20;3.47;;;2.40;;
74245;SDS011;62601;51.044;13.788;2023-12-28T05:21:42;11.75;;;7.57;;
74245;SDS011;62601;51.044;13.788;2023-12-28T05:24:03;9.75;;;5.28;;
74245;SDS011;62601;51.044;13.788;2023-12-28T05:26:25;2.83;;;2.22;;
74245;SDS011;62601;51.044;13.788;2023-12-28T05:28:46;2.70;;;1.88;;
74245;SDS011;62601;51.044;13.788;2023-12-28T05:31:08;4.13;;;2.10;;
74245;SDS011;62601;51.044;13.788;2023-12-28T05:33:29;4.22;;;2.15;;
74245;SDS011;62601;51.044;13.788;2023-12-28T05:35:51;3.90;;;2.90;;
74245;SDS011;62601;51.044;13.788;2023-12-28T05:38:12;3.85;;;2.30;;
74245;SDS011;62601;51.044;13.788;2023-12-28T05:40:34;2.67;;;2.47;;
74245;SDS011;62601;51.044;13.788;2023-12-28T05:42:56;2.42;;;2.22;;
74245;SDS011;62601;51.044;13.788;2023-12-28T05:45:17;3.17;;;2.28;;
74245;SDS011;62601;51.044;13.788;2023-12-28T05:47:37;7.50;;;4.07;;
74245;SDS011;62601;51.044;13.788;2023-12-28T05:49:59;5.07;;;3.50;;
74245;SDS011;62601;51.044;13.788;2023-12-28T05:52:20;3.80;;;2.97;;
74245;SDS011;62601;51.044;13.788;2023-12-28T05:54:41;5.30;;;3.97;;
74245;SDS011;62601;51.044;13.788;2023-12-28T05:57:06;3.80;;;2.60;;
74245;SDS011;62601;51.044;13.788;2023-12-28T05:59:27;4.07;;;3.10;;
74245;SDS011;62601;51.044;13.788;2023-12-28T06:01:49;4.03;;;2.60;;
74245;SDS011;62601;51.044;13.788;2023-12-28T06:04:09;3.75;;;2.90;;
74245;SDS011;62601;51.044;13.788;2023-12-28T06:06:29;4.50;;;3.00;;
74245;SDS011;62601;51.044;13.788;2023-12-28T06:08:49;4.07;;;3.30;;
74245;SDS011;62601;51.044;13.788;2023-12-28T06:11:09;3.10;;;2.80;;
74245;SDS011;62601;51.044;13.788;2023-12-28T06:13:29;3.53;;;2.40;;
74245;SDS011;62601;51.044;13.788;2023-12-28T06:15:49;3.00;;;2.58;;
74245;SDS011;62601;51.044;13.788;2023-12-28T06:18:09;3.47;;;2.72;;
74245;SDS011;62601;51.044;13.788;2023-12-28T06:20:30;2.65;;;2.40;;
74245;SDS011;62601;51.044;13.788;2023-12-28T06:22:50;8.35;;;5.03;;
74245;SDS011;62601;51.044;13.788;2023-12-28T06:25:11;12.05;;;8.52;;
74245;SDS011;62601;51.044;13.788;2023-12-28T06:27:31;7.65;;;5.53;;
74245;SDS011;62601;51.044;13.788;2023-12-28T06:29:51;5.30;;;3.90;;
74245;SDS011;62601;51.044;13.788;2023-12-28T06:32:11;5.15;;;3.15;;
74245;SDS011;62601;51.044;13.788;2023-12-28T06:34:31;5.03;;;3.25;;
74245;SDS011;62601;51.044;13.788;2023-12-28T06:36:51;3.45;;;2.58;;
74245;SDS011;62601;51.044;13.788;2023-12-28T06:39:11;7.32;;;2.70;;
74245;SDS011;62601;51.044;13.788;2023-12-28T06:41:32;8.65;;;4.53;;
74245;SDS011;62601;51.044;13.788;2023-12-28T06:43:52;4.85;;;3.08;;
74245;SDS011;62601;51.044;13.788;2023-12-28T06:46:12;3.60;;;2.78;;
74245;SDS011;62601;51.044;13.788;2023-12-28T06:48:32;5.30;;;3.00;;
74245;SDS011;62601;51.044;13.788;2023-12-28T06:50:52;2.80;;;2.42;;
74245;SDS011;62601;51.044;13.788;2023-12-28T06:53:12;3.20;;;2.90;;
74245;SDS011;62601;51.044;13.788;2023-12-28T06:55:32;3.33;;;3.00;;
74245;SDS011;62601;51.044;13.788;2023-12-28T06:57:52;4.10;;;2.70;;
74245;SDS011;62601;51.044;13.788;2023-12-28T07:00:13;3.13;;;2.83;;
74245;SDS011;62601;51.044;13.788;2023-12-28T07:02:33;3.30;;;2.97;;
74245;SDS011;62601;51.044;13.788;2023-12-28T07:04:53;6.60;;;3.65;;
74245;SDS011;62601;51.044;13.788;2023-12-28T07:07:13;6.60;;;3.95;;
74245;SDS011;62601;51.044;13.788;2023-12-28T07:09:33;3.17;;;2.88;;
74245;SDS011;62601;51.044;13.788;2023-12-28T07:11:53;8.52;;;6.47;;
74245;SDS011;62601;51.044;13.788;2023-12-28T07:14:13;6.65;;;4.93;;
74245;SDS011;62601;51.044;13.788;2023-12-28T07:16:34;6.35;;;3.65;;
74245;SDS011;62601;51.044;13.788;2023-12-28T07:18:54;2.60;;;2.30;;
74245;SDS011;62601;51.044;13.788;2023-12-28T07:21:14;4.35;;;2.90;;
74245;SDS011;62601;51.044;13.788;2023-12-28T07:23:34;9.32;;;4.00;;
74245;SDS011;62601;51.044;13.788;2023-12-28T07:25:54;3.78;;;2.60;;
74245;SDS011;62601;51.044;13.788;2023-12-28T07:28:14;3.38;;;2.30;;
74245;SDS011;62601;51.044;13.788;2023-12-28T07:30:34;1.60;;;1.42;;
74245;SDS011;62601;51.044;13.788;2023-12-28T07:32:54;1.98;;;1.85;;
74245;SDS011;62601;51.044;13.788;2023-12-28T07:35:14;2.28;;;1.90;;
74245;SDS011;62601;51.044;13.788;2023-12-28T07:37:34;4.00;;;2.83;;
74245;SDS011;62601;51.044;13.788;2023-12-28T07:39:55;6.80;;;4.85;;
74245;SDS011;62601;51.044;13.788;2023-12-28T07:42:15;5.03;;;3.25;;
74245;SDS011;62601;51.044;13.788;2023-12-28T07:44:35;3.63;;;3.28;;
74245;SDS011;62601;51.044;13.788;2023-12-28T07:46:55;4.53;;;2.55;;
74245;SDS011;62601;51.044;13.788;2023-12-28T07:49:15;3.15;;;2.55;;
74245;SDS011;62601;51.044;13.788;2023-12-28T07:51:35;5.22;;;2.50;;
74245;SDS011;62601;51.044;13.788;2023-12-28T07:53:55;2.50;;;2.10;;
74245;SDS011;62601;51.044;13.788;2023-12-28T07:56:15;2.10;;;1.83;;
74245;SDS011;62601;51.044;13.788;2023-12-28T07:58:35;2.20;;;2.00;;
74245;SDS011;62601;51.044;13.788;2023-12-28T08:00:55;4.00;;;2.22;;
74245;SDS011;62601;51.044;13.788;2023-12-28T08:03:16;2.05;;;1.80;;
74245;SDS011;62601;51.044;13.788;2023-12-28T08:05:36;3.70;;;1.90;;
74245;SDS011;62601;51.044;13.788;2023-12-28T08:07:56;1.95;;;1.50;;
74245;SDS011;62601;51.044;13.788;2023-12-28T08:10:16;2.95;;;1.80;;
74245;SDS011;62601;51.044;13.788;2023-12-28T08:12:36;2.40;;;1.98;;
74245;SDS011;62601;51.044;13.788;2023-12-28T08:14:56;5.28;;;2.45;;
74245;SDS011;62601;51.044;13.788;2023-12-28T08:17:16;2.22;;;1.98;;
74245;SDS011;62601;51.044;13.788;2023-12-28T08:19:36;3.55;;;1.85;;
74245;SDS011;62601;51.044;13.788;2023-12-28T08:21:56;2.75;;;2.00;;
74245;SDS011;62601;51.044;13.788;2023-12-28T08:24:16;1.95;;;1.80;;
74245;SDS011;62601;51.044;13.788;2023-12-28T08:26:36;2.63;;;1.85;;
74245;SDS011;62601;51.044;13.788;2023-12-28T08:28:56;2.08;;;1.52;;
74245;SDS011;62601;51.044;13.788;2023-12-28T08:31:17;2.10;;;1.67;;
74245;SDS011;62601;51.044;13.788;2023-12-28T08:33:37;1.70;;;1.60;;
74245;SDS011;62601;51.044;13.788;2023-12-28T08:35:57;2.22;;;2.00;;
74245;SDS011;62601;51.044;13.788;2023-12-28T08:38:17;2.88;;;1.80;;
74245;SDS011;62601;51.044;13.788;2023-12-28T08:40:37;2.15;;;1.95;;
74245;SDS011;62601;51.044;13.788;2023-12-28T08:42:58;1.67;;;1.50;;
74245;SDS011;62601;51.044;13.788;2023-12-28T08:45:18;2.75;;;2.10;;
74245;SDS011;62601;51.044;13.788;2023-12-28T08:47:38;3.63;;;1.70;;
74245;SDS011;62601;51.044;13.788;2023-12-28T08:49:58;2.47;;;1.92;;
74245;SDS011;62601;51.044;13.788;2023-12-28T08:52:18;2.00;;;1.60;;
74245;SDS011;62601;51.044;13.788;2023-12-28T08:54:39;2.00;;;1.80;;
74245;SDS011;62601;51.044;13.788;2023-12-28T08:56:59;2.17;;;1.65;;
74245;SDS011;62601;51.044;13.788;2023-12-28T08:59:19;1.60;;;1.48;;
74245;SDS011;62601;51.044;13.788;2023-12-28T09:01:39;1.63;;;1.38;;
74245;SDS011;62601;51.044;13.788;2023-12-28T09:03:59;2.95;;;1.60;;
74245;SDS011;62601;51.044;13.788;2023-12-28T09:06:20;1.98;;;1.77;;
74245;SDS011;62601;51.044;13.788;2023-12-28T09:08:43;3.05;;;2.70;;
74245;SDS011;62601;51.044;13.788;2023-12-28T09:11:03;3.03;;;2.10;;
74245;SDS011;62601;51.044;13.788;2023-12-28T09:13:24;2.22;;;2.05;;
74245;SDS011;62601;51.044;13.788;2023-12-28T09:15:45;2.10;;;2.00;;
74245;SDS011;62601;51.044;13.788;2023-12-28T09:18:05;2.10;;;1.90;;
74245;SDS011;62601;51.044;13.788;2023-12-28T09:20:25;1.73;;;1.40;;
74245;SDS011;62601;51.044;13.788;2023-12-28T09:22:45;1.88;;;1.67;;
74245;SDS011;62601;51.044;13.788;2023-12-28T09:25:05;3.97;;;3.15;;
74245;SDS011;62601;51.044;13.788;2023-12-28T09:27:25;4.05;;;3.00;;
74245;SDS011;62601;51.044;13.788;2023-12-28T09:29:45;4.00;;;1.48;;
74245;SDS011;62601;51.044;13.788;2023-12-28T09:32:06;3.17;;;2.60;;
74245;SDS011;62601;51.044;13.788;2023-12-28T09:34:26;4.47;;;2.40;;
74245;SDS011;62601;51.044;13.788;2023-12-28T09:36:46;6.25;;;1.95;;
74245;SDS011;62601;51.044;13.788;2023-12-28T09:39:07;3.50;;;1.45;;
74245;SDS011;62601;51.044;13.788;2023-12-28T09:41:30;1.95;;;1.60;;
74245;SDS011;62601;51.044;13.788;2023-12-28T09:44:01;2.92;;;1.95;;
74245;SDS011;62601;51.044;13.788;2023-12-28T09:46:25;1.98;;;1.55;;
74245;SDS011;62601;51.044;13.788;2023-12-28T09:48:45;1.67;;;1.30;;
74245;SDS011;62601;51.044;13.788;2023-12-28T09:51:05;1.80;;;1.38;;
74245;SDS011;62601;51.044;13.788;2023-12-28T09:53:25;1.77;;;1.55;;
74245;SDS011;62601;51.044;13.788;2023-12-28T09:55:46;2.70;;;1.50;;
74245;SDS011;62601;51.044;13.788;2023-12-28T09:58:07;1.55;;;1.45;;
74245;SDS011;62601;51.044;13.788;2023-12-28T10:00:27;5.10;;;2.10;;
74245;SDS011;62601;51.044;13.788;2023-12-28T10:02:49;2.03;;;1.75;;
74245;SDS011;62601;51.044;13.788;2023-12-28T10:05:13;2.05;;;1.52;;
74245;SDS011;62601;51.044;13.788;2023-12-28T10:07:39;6.80;;;1.98;;
74245;SDS011;62601;51.044;13.788;2023-12-28T10:10:01;2.67;;;1.63;;
74245;SDS011;62601;51.044;13.788;2023-12-28T10:12:22;1.83;;;1.70;;
74245;SDS011;62601;51.044;13.788;2023-12-28T10:14:42;1.85;;;1.55;;
74245;SDS011;62601;51.044;13.788;2023-12-28T10:17:02;3.03;;;1.52;;
74245;SDS011;62601;51.044;13.788;2023-12-28T10:19:24;1.45;;;1.20;;
74245;SDS011;62601;51.044;13.788;2023-12-28T10:21:46;1.70;;;1.60;;
74245;SDS011;62601;51.044;13.788;2023-12-28T10:24:08;3.22;;;1.98;;
74245;SDS011;62601;51.044;13.788;2023-12-28T10:26:31;3.38;;;1.85;;
74245;SDS011;62601;51.044;13.788;2023-12-28T10:28:59;4.38;;;1.77;;
74245;SDS011;62601;51.044;13.788;2023-12-28T10:31:20;2.42;;;1.70;;
74245;SDS011;62601;51.044;13.788;2023-12-28T10:33:41;5.40;;;2.30;;
74245;SDS011;62601;51.044;13.788;2023-12-28T10:36:05;3.53;;;1.95;;
74245;SDS011;62601;51.044;13.788;2023-12-28T10:38:25;2.58;;;1.80;;
74245;SDS011;62601;51.044;13.788;2023-12-28T10:40:47;5.95;;;2.17;;
74245;SDS011;62601;51.044;13.788;2023-12-28T10:43:08;1.83;;;1.73;;
74245;SDS011;62601;51.044;13.788;2023-12-28T10:45:29;4.60;;;1.50;;
74245;SDS011;62601;51.044;13.788;2023-12-28T10:48:04;7.90;;;5.30;;
74245;SDS011;62601;51.044;13.788;2023-12-28T10:50:26;3.97;;;3.25;;
74245;SDS011;62601;51.044;13.788;2023-12-28T10:52:49;4.72;;;4.10;;
74245;SDS011;62601;51.044;13.788;2023-12-28T10:55:25;3.03;;;2.30;;
74245;SDS011;62601;51.044;13.788;2023-12-28T10:58:00;2.25;;;2.05;;
74245;SDS011;62601;51.044;13.788;2023-12-28T11:00:25;2.90;;;2.53;;
74245;SDS011;62601;51.044;13.788;2023-12-28T11:02:57;4.65;;;2.67;;
74245;SDS011;62601;51.044;13.788;2023-12-28T11:05:23;3.58;;;3.25;;
74245;SDS011;62601;51.044;13.788;2023-12-28T11:07:52;2.83;;;2.53;;
74245;SDS011;62601;51.044;13.788;2023-12-28T11:10:14;5.10;;;2.92;;
74245;SDS011;62601;51.044;13.788;2023-12-28T11:12:37;4.72;;;3.10;;
74245;SDS011;62601;51.044;13.788;2023-12-28T11:14:59;2.80;;;2.60;;
74245;SDS011;62601;51.044;13.788;2023-12-28T11:17:20;2.20;;;2.00;;
74245;SDS011;62601;51.044;13.788;2023-12-28T11:19:40;2.78;;;1.70;;
74245;SDS011;62601;51.044;13.788;2023-12-28T11:22:02;2.55;;;2.25;;
74245;SDS011;62601;51.044;13.788;2023-12-28T11:24:27;2.10;;;1.90;;
74245;SDS011;62601;51.044;13.788;2023-12-28T11:26:54;3.05;;;1.70;;
74245;SDS011;62601;51.044;13.788;2023-12-28T11:29:18;3.30;;;2.03;;
74245;SDS011;62601;51.044;13.788;2023-12-28T11:31:39;2.60;;;1.67;;
74245;SDS011;62601;51.044;13.788;2023-12-28T11:34:01;2.60;;;2.05;;
74245;SDS011;62601;51.044;13.788;2023-12-28T11:36:30;2.30;;;1.52;;
74245;SDS011;62601;51.044;13.788;2023-12-28T11:38:53;1.60;;;1.30;;
74245;SDS011;62601;51.044;13.788;2023-12-28T11:41:17;2.45;;;1.67;;
74245;SDS011;62601;51.044;13.788;2023-12-28T11:43:40;2.65;;;1.52;;
74245;SDS011;62601;51.044;13.788;2023-12-28T11:46:00;1.65;;;1.55;;
74245;SDS011;62601;51.044;13.788;2023-12-28T11:48:28;1.70;;;1.40;;
74245;SDS011;62601;51.044;13.788;2023-12-28T11:50:48;2.95;;;2.03;;
74245;SDS011;62601;51.044;13.788;2023-12-28T11:53:11;1.60;;;1.50;;
74245;SDS011;62601;51.044;13.788;2023-12-28T11:55:36;2.90;;;2.08;;
74245;SDS011;62601;51.044;13.788;2023-12-28T11:57:57;2.20;;;2.00;;
74245;SDS011;62601;51.044;13.788;2023-12-28T12:00:19;2.60;;;1.65;;
74245;SDS011;62601;51.044;13.788;2023-12-28T12:02:43;3.55;;;1.65;;
74245;SDS011;62601;51.044;13.788;2023-12-28T12:05:03;1.70;;;1.60;;
74245;SDS011;62601;51.044;13.788;2023-12-28T12:07:25;1.70;;;1.60;;
74245;SDS011;62601;51.044;13.788;2023-12-28T12:09:46;2.33;;;1.67;;
74245;SDS011;62601;51.044;13.788;2023-12-28T12:12:07;1.88;;;1.67;;
74245;SDS011;62601;51.044;13.788;2023-12-28T12:14:29;3.30;;;1.63;;
74245;SDS011;62601;51.044;13.788;2023-12-28T12:16:50;2.80;;;1.77;;
74245;SDS011;62601;51.044;13.788;2023-12-28T12:19:11;4.18;;;2.70;;
74245;SDS011;62601;51.044;13.788;2023-12-28T12:21:33;2.88;;;2.15;;
74245;SDS011;62601;51.044;13.788;2023-12-28T12:23:54;3.05;;;2.55;;
74245;SDS011;62601;51.044;13.788;2023-12-28T12:26:17;2.65;;;2.00;;
74245;SDS011;62601;51.044;13.788;2023-12-28T12:28:39;2.83;;;1.90;;
74245;SDS011;62601;51.044;13.788;2023-12-28T12:31:00;3.47;;;3.17;;
74245;SDS011;62601;51.044;13.788;2023-12-28T12:33:22;2.88;;;1.80;;
74245;SDS011;62601;51.044;13.788;2023-12-28T12:35:45;1.95;;;1.38;;
74245;SDS011;62601;51.044;13.788;2023-12-28T12:38:06;2.58;;;1.70;;
74245;SDS011;62601;51.044;13.788;2023-12-28T12:40:28;2.17;;;1.63;;
74245;SDS011;62601;51.044;13.788;2023-12-28T12:42:53;2.70;;;2.10;;
74245;SDS011;62601;51.044;13.788;2023-12-28T12:45:13;2.70;;;2.03;;
74245;SDS011;62601;51.044;13.788;2023-12-28T12:47:33;2.08;;;1.63;;
74245;SDS011;62601;51.044;13.788;2023-12-28T12:49:55;1.85;;;1.70;;
74245;SDS011;62601;51.044;13.788;2023-12-28T12:52:16;2.80;;;1.75;;
74245;SDS011;62601;51.044;13.788;2023-12-28T12:54:36;1.95;;;1.70;;
74245;SDS011;62601;51.044;13.788;2023-12-28T12:56:58;1.55;;;1.45;;
74245;SDS011;62601;51.044;13.788;2023-12-28T12:59:20;1.70;;;1.60;;
74245;SDS011;62601;51.044;13.788;2023-12-28T13:01:42;1.80;;;1.70;;
74245;SDS011;62601;51.044;13.788;2023-12-28T13:04:02;1.65;;;1.55;;
74245;SDS011;62601;51.044;13.788;2023-12-28T13:06:24;1.35;;;1.25;;
74245;SDS011;62601;51.044;13.788;2023-12-28T13:08:46;1.98;;;1.30;;
74245;SDS011;62601;51.044;13.788;2023-12-28T13:11:06;3.20;;;1.40;;
74245;SDS011;62601;51.044;13.788;2023-12-28T13:13:27;4.75;;;2.05;;
74245;SDS011;62601;51.044;13.788;2023-12-28T13:15:48;2.22;;;1.58;;
74245;SDS011;62601;51.044;13.788;2023-12-28T13:18:10;2.45;;;1.70;;
74245;SDS011;62601;51.044;13.788;2023-12-28T13:20:30;1.63;;;1.52;;
74245;SDS011;62601;51.044;13.788;2023-12-28T13:22:50;1.40;;;1.30;;
74245;SDS011;62601;51.044;13.788;2023-12-28T13:25:10;2.35;;;1.60;;
74245;SDS011;62601;51.044;13.788;2023-12-28T13:27:33;1.83;;;1.67;;
74245;SDS011;62601;51.044;13.788;2023-12-28T13:29:54;4.70;;;1.60;;
74245;SDS011;62601;51.044;13.788;2023-12-28T13:32:14;4.68;;;1.52;;
74245;SDS011;62601;51.044;13.788;2023-12-28T13:34:35;1.33;;;1.23;;
74245;SDS011;62601;51.044;13.788;2023-12-28T13:36:55;1.98;;;1.40;;
74245;SDS011;62601;51.044;13.788;2023-12-28T13:39:17;2.15;;;1.58;;
74245;SDS011;62601;51.044;13.788;2023-12-28T13:41:38;2.00;;;1.70;;
74245;SDS011;62601;51.044;13.788;2023-12-28T13:44:00;1.85;;;1.52;;
74245;SDS011;62601;51.044;13.788;2023-12-28T13:46:20;5.72;;;4.47;;
74245;SDS011;62601;51.044;13.788;2023-12-28T13:48:42;1.60;;;1.50;;
74245;SDS011;62601;51.044;13.788;2023-12-28T13:51:04;1.70;;;1.50;;
74245;SDS011;62601;51.044;13.788;2023-12-28T13:53:26;2.17;;;1.98;;
74245;SDS011;62601;51.044;13.788;2023-12-28T13:55:46;1.75;;;1.40;;
74245;SDS011;62601;51.044;13.788;2023-12-28T13:58:07;2.92;;;1.73;;
74245;SDS011;62601;51.044;13.788;2023-12-28T14:00:28;3.97;;;1.50;;